Terminal Aerodrome Forecast
Issued by NWS Pueblo, CO

Home | Current Version | Previous Version | Text Only | Print | Product List | Glossary On
Versions: 1 2 3 4 5 6 7 8 9 10 11 12 13 14 15 16 17 18 19 20 21
000
FTUS45 KPUB 301123
TAFCOS
TAF
KCOS 301123Z 3012/3112 35007KT P6SM SCT200
     FM301800 16010KT P6SM BKN200
     FM302000 16015G21KT P6SM SCT100 BKN200
     FM310200 12009KT P6SM SCT080 BKN150
     FM311100 09010KT P6SM VCSH SCT070 BKN120=

USA.gov is the U.S. government's official web portal to all federal, state and local government web resources and services.